sensor_id;sensor_type;location;lat;lon;timestamp;P1;durP1;ratioP1;P2;durP2;ratioP2
23001;SDS011;11667;51.706;4.856;2022-12-29T00:00:24;4.20;;;2.65;;
23001;SDS011;11667;51.706;4.856;2022-12-29T00:02:54;3.30;;;2.60;;
23001;SDS011;11667;51.706;4.856;2022-12-29T00:05:24;5.05;;;3.40;;
23001;SDS011;11667;51.706;4.856;2022-12-29T00:07:53;6.28;;;3.00;;
23001;SDS011;11667;51.706;4.856;2022-12-29T00:10:23;3.30;;;2.70;;
23001;SDS011;11667;51.706;4.856;2022-12-29T00:12:52;3.87;;;2.40;;
23001;SDS011;11667;51.706;4.856;2022-12-29T00:15:40;4.30;;;2.50;;
23001;SDS011;11667;51.706;4.856;2022-12-29T00:18:09;4.42;;;2.87;;
23001;SDS011;11667;51.706;4.856;2022-12-29T00:20:38;4.50;;;2.60;;
23001;SDS011;11667;51.706;4.856;2022-12-29T00:23:25;3.55;;;2.20;;
23001;SDS011;11667;51.706;4.856;2022-12-29T00:26:13;5.28;;;2.10;;
23001;SDS011;11667;51.706;4.856;2022-12-29T00:29:01;4.00;;;2.10;;
23001;SDS011;11667;51.706;4.856;2022-12-29T00:31:49;2.77;;;2.00;;
23001;SDS011;11667;51.706;4.856;2022-12-29T00:34:36;3.02;;;1.77;;
23001;SDS011;11667;51.706;4.856;2022-12-29T00:37:23;2.33;;;1.60;;
23001;SDS011;11667;51.706;4.856;2022-12-29T00:39:55;2.37;;;1.60;;
23001;SDS011;11667;51.706;4.856;2022-12-29T00:42:42;3.60;;;1.80;;
23001;SDS011;11667;51.706;4.856;2022-12-29T00:45:29;3.65;;;1.82;;
23001;SDS011;11667;51.706;4.856;2022-12-29T00:47:59;3.65;;;1.70;;
23001;SDS011;11667;51.706;4.856;2022-12-29T00:50:28;3.30;;;1.90;;
23001;SDS011;11667;51.706;4.856;2022-12-29T00:52:57;3.85;;;1.67;;
23001;SDS011;11667;51.706;4.856;2022-12-29T00:55:27;3.30;;;2.02;;
23001;SDS011;11667;51.706;4.856;2022-12-29T00:57:57;3.02;;;1.70;;
23001;SDS011;11667;51.706;4.856;2022-12-29T01:00:26;3.83;;;1.90;;
23001;SDS011;11667;51.706;4.856;2022-12-29T01:02:56;2.25;;;1.75;;
23001;SDS011;11667;51.706;4.856;2022-12-29T01:05:26;2.17;;;1.65;;
23001;SDS011;11667;51.706;4.856;2022-12-29T01:07:55;3.00;;;1.87;;
23001;SDS011;11667;51.706;4.856;2022-12-29T01:10:24;2.25;;;1.65;;
23001;SDS011;11667;51.706;4.856;2022-12-29T01:12:54;2.90;;;1.82;;
23001;SDS011;11667;51.706;4.856;2022-12-29T01:15:24;2.52;;;1.80;;
23001;SDS011;11667;51.706;4.856;2022-12-29T01:17:53;4.42;;;2.17;;
23001;SDS011;11667;51.706;4.856;2022-12-29T01:20:23;2.72;;;2.02;;
23001;SDS011;11667;51.706;4.856;2022-12-29T01:22:52;4.20;;;2.30;;
23001;SDS011;11667;51.706;4.856;2022-12-29T01:25:21;4.90;;;2.30;;
23001;SDS011;11667;51.706;4.856;2022-12-29T01:27:51;4.95;;;2.52;;
23001;SDS011;11667;51.706;4.856;2022-12-29T01:30:20;3.65;;;2.25;;
23001;SDS011;11667;51.706;4.856;2022-12-29T01:32:51;3.50;;;2.30;;
23001;SDS011;11667;51.706;4.856;2022-12-29T01:35:20;3.20;;;2.50;;
23001;SDS011;11667;51.706;4.856;2022-12-29T01:37:49;3.47;;;2.47;;
23001;SDS011;11667;51.706;4.856;2022-12-29T01:40:19;4.75;;;2.42;;
23001;SDS011;11667;51.706;4.856;2022-12-29T01:42:48;3.67;;;2.55;;
23001;SDS011;11667;51.706;4.856;2022-12-29T01:45:18;4.12;;;2.40;;
23001;SDS011;11667;51.706;4.856;2022-12-29T01:47:59;3.75;;;2.10;;
23001;SDS011;11667;51.706;4.856;2022-12-29T01:50:25;2.30;;;1.60;;
23001;SDS011;11667;51.706;4.856;2022-12-29T01:52:59;4.30;;;1.40;;
23001;SDS011;11667;51.706;4.856;2022-12-29T01:55:39;2.55;;;1.10;;
23001;SDS011;11667;51.706;4.856;2022-12-29T01:58:07;1.75;;;1.00;;
23001;SDS011;11667;51.706;4.856;2022-12-29T02:00:38;3.62;;;1.25;;
23001;SDS011;11667;51.706;4.856;2022-12-29T02:03:08;2.33;;;1.30;;
23001;SDS011;11667;51.706;4.856;2022-12-29T02:05:40;4.55;;;2.10;;
23001;SDS011;11667;51.706;4.856;2022-12-29T02:08:13;5.37;;;2.10;;
23001;SDS011;11667;51.706;4.856;2022-12-29T02:10:43;4.37;;;2.22;;
23001;SDS011;11667;51.706;4.856;2022-12-29T02:13:16;3.67;;;2.07;;
23001;SDS011;11667;51.706;4.856;2022-12-29T02:15:48;4.30;;;2.45;;
23001;SDS011;11667;51.706;4.856;2022-12-29T02:18:51;3.90;;;2.35;;
23001;SDS011;11667;51.706;4.856;2022-12-29T02:27:48;6.22;;;2.17;;
23001;SDS011;11667;51.706;4.856;2022-12-29T02:30:38;3.52;;;2.10;;
23001;SDS011;11667;51.706;4.856;2022-12-29T02:33:33;6.40;;;2.12;;
23001;SDS011;11667;51.706;4.856;2022-12-29T02:36:15;5.87;;;1.82;;
23001;SDS011;11667;51.706;4.856;2022-12-29T02:38:58;5.47;;;1.82;;
23001;SDS011;11667;51.706;4.856;2022-12-29T02:41:37;5.80;;;1.82;;
23001;SDS011;11667;51.706;4.856;2022-12-29T02:52:26;5.45;;;2.20;;
23001;SDS011;11667;51.706;4.856;2022-12-29T02:54:55;6.53;;;2.77;;
23001;SDS011;11667;51.706;4.856;2022-12-29T03:00:04;7.22;;;3.10;;
23001;SDS011;11667;51.706;4.856;2022-12-29T03:08:14;6.40;;;3.17;;
23001;SDS011;11667;51.706;4.856;2022-12-29T03:10:59;6.90;;;3.20;;
23001;SDS011;11667;51.706;4.856;2022-12-29T03:13:39;6.20;;;3.12;;
23001;SDS011;11667;51.706;4.856;2022-12-29T03:21:56;9.35;;;3.00;;
23001;SDS011;11667;51.706;4.856;2022-12-29T03:24:50;9.68;;;2.55;;
23001;SDS011;11667;51.706;4.856;2022-12-29T03:27:25;10.75;;;2.77;;
23001;SDS011;11667;51.706;4.856;2022-12-29T03:30:01;8.30;;;2.30;;
23001;SDS011;11667;51.706;4.856;2022-12-29T03:32:38;10.32;;;2.00;;
23001;SDS011;11667;51.706;4.856;2022-12-29T03:35:07;5.92;;;1.87;;
23001;SDS011;11667;51.706;4.856;2022-12-29T03:37:39;9.00;;;2.22;;
23001;SDS011;11667;51.706;4.856;2022-12-29T03:40:10;6.67;;;1.90;;
23001;SDS011;11667;51.706;4.856;2022-12-29T03:42:41;6.50;;;1.65;;
23001;SDS011;11667;51.706;4.856;2022-12-29T03:45:11;6.00;;;1.70;;
23001;SDS011;11667;51.706;4.856;2022-12-29T03:47:40;7.62;;;1.70;;
23001;SDS011;11667;51.706;4.856;2022-12-29T03:50:11;7.50;;;1.62;;
23001;SDS011;11667;51.706;4.856;2022-12-29T03:52:41;5.17;;;1.52;;
23001;SDS011;11667;51.706;4.856;2022-12-29T03:55:11;5.08;;;1.20;;
23001;SDS011;11667;51.706;4.856;2022-12-29T03:57:41;4.78;;;1.35;;
23001;SDS011;11667;51.706;4.856;2022-12-29T04:00:13;6.37;;;1.30;;
23001;SDS011;11667;51.706;4.856;2022-12-29T04:02:46;6.80;;;1.82;;
23001;SDS011;11667;51.706;4.856;2022-12-29T04:05:22;7.87;;;1.60;;
23001;SDS011;11667;51.706;4.856;2022-12-29T04:07:53;6.45;;;1.40;;
23001;SDS011;11667;51.706;4.856;2022-12-29T04:10:23;6.83;;;1.57;;
23001;SDS011;11667;51.706;4.856;2022-12-29T04:12:54;5.42;;;1.30;;
23001;SDS011;11667;51.706;4.856;2022-12-29T04:15:24;6.90;;;1.27;;
23001;SDS011;11667;51.706;4.856;2022-12-29T04:17:54;7.00;;;1.22;;
23001;SDS011;11667;51.706;4.856;2022-12-29T04:20:23;6.85;;;1.42;;
23001;SDS011;11667;51.706;4.856;2022-12-29T04:23:11;7.05;;;1.35;;
23001;SDS011;11667;51.706;4.856;2022-12-29T04:25:44;8.38;;;1.60;;
23001;SDS011;11667;51.706;4.856;2022-12-29T04:28:15;8.35;;;1.60;;
23001;SDS011;11667;51.706;4.856;2022-12-29T04:30:48;6.95;;;1.42;;
23001;SDS011;11667;51.706;4.856;2022-12-29T04:33:19;7.80;;;1.27;;
23001;SDS011;11667;51.706;4.856;2022-12-29T04:35:49;9.48;;;1.32;;
23001;SDS011;11667;51.706;4.856;2022-12-29T04:38:21;5.90;;;1.03;;
23001;SDS011;11667;51.706;4.856;2022-12-29T04:40:53;6.97;;;1.45;;
23001;SDS011;11667;51.706;4.856;2022-12-29T04:43:23;7.15;;;1.22;;
23001;SDS011;11667;51.706;4.856;2022-12-29T04:45:54;10.95;;;1.50;;
23001;SDS011;11667;51.706;4.856;2022-12-29T04:48:31;10.08;;;1.62;;
23001;SDS011;11667;51.706;4.856;2022-12-29T04:51:11;6.78;;;1.57;;
23001;SDS011;11667;51.706;4.856;2022-12-29T04:53:41;9.50;;;1.90;;
23001;SDS011;11667;51.706;4.856;2022-12-29T04:56:11;7.53;;;1.60;;
23001;SDS011;11667;51.706;4.856;2022-12-29T04:58:41;7.22;;;1.75;;
23001;SDS011;11667;51.706;4.856;2022-12-29T05:01:10;7.28;;;1.65;;
23001;SDS011;11667;51.706;4.856;2022-12-29T05:03:40;9.23;;;2.37;;
23001;SDS011;11667;51.706;4.856;2022-12-29T05:06:10;9.10;;;2.10;;
23001;SDS011;11667;51.706;4.856;2022-12-29T05:08:39;8.75;;;2.10;;
23001;SDS011;11667;51.706;4.856;2022-12-29T05:11:09;12.33;;;2.25;;
23001;SDS011;11667;51.706;4.856;2022-12-29T05:13:39;12.37;;;2.17;;
23001;SDS011;11667;51.706;4.856;2022-12-29T05:16:09;12.45;;;2.35;;
23001;SDS011;11667;51.706;4.856;2022-12-29T05:18:38;9.23;;;2.10;;
23001;SDS011;11667;51.706;4.856;2022-12-29T05:21:08;10.30;;;2.05;;
23001;SDS011;11667;51.706;4.856;2022-12-29T05:23:39;14.65;;;2.58;;
23001;SDS011;11667;51.706;4.856;2022-12-29T05:26:08;8.65;;;2.05;;
23001;SDS011;11667;51.706;4.856;2022-12-29T05:28:45;9.43;;;1.90;;
23001;SDS011;11667;51.706;4.856;2022-12-29T05:31:16;9.25;;;1.95;;
23001;SDS011;11667;51.706;4.856;2022-12-29T05:33:47;10.13;;;1.62;;
23001;SDS011;11667;51.706;4.856;2022-12-29T05:36:17;12.88;;;2.22;;
23001;SDS011;11667;51.706;4.856;2022-12-29T05:38:48;9.90;;;2.05;;
23001;SDS011;11667;51.706;4.856;2022-12-29T05:41:18;9.25;;;1.65;;
23001;SDS011;11667;51.706;4.856;2022-12-29T05:43:52;9.85;;;2.02;;
23001;SDS011;11667;51.706;4.856;2022-12-29T05:46:29;11.88;;;1.82;;
23001;SDS011;11667;51.706;4.856;2022-12-29T05:49:00;10.55;;;1.90;;
23001;SDS011;11667;51.706;4.856;2022-12-29T05:51:44;10.08;;;2.15;;
23001;SDS011;11667;51.706;4.856;2022-12-29T05:54:15;12.03;;;2.05;;
23001;SDS011;11667;51.706;4.856;2022-12-29T05:56:45;12.13;;;1.70;;
23001;SDS011;11667;51.706;4.856;2022-12-29T05:59:15;12.30;;;1.98;;
23001;SDS011;11667;51.706;4.856;2022-12-29T06:01:46;12.58;;;2.08;;
23001;SDS011;11667;51.706;4.856;2022-12-29T06:04:16;10.05;;;1.75;;
23001;SDS011;11667;51.706;4.856;2022-12-29T06:06:46;11.65;;;1.80;;
23001;SDS011;11667;51.706;4.856;2022-12-29T06:09:18;8.70;;;1.70;;
23001;SDS011;11667;51.706;4.856;2022-12-29T06:11:47;11.45;;;1.92;;
23001;SDS011;11667;51.706;4.856;2022-12-29T06:14:18;8.53;;;1.80;;
23001;SDS011;11667;51.706;4.856;2022-12-29T06:16:48;9.30;;;1.62;;
23001;SDS011;11667;51.706;4.856;2022-12-29T06:19:17;13.22;;;1.82;;
23001;SDS011;11667;51.706;4.856;2022-12-29T06:21:47;9.73;;;1.95;;
23001;SDS011;11667;51.706;4.856;2022-12-29T06:24:17;9.90;;;1.80;;
23001;SDS011;11667;51.706;4.856;2022-12-29T06:26:48;12.95;;;1.62;;
23001;SDS011;11667;51.706;4.856;2022-12-29T06:29:18;7.60;;;1.60;;
23001;SDS011;11667;51.706;4.856;2022-12-29T06:31:48;9.30;;;1.50;;
23001;SDS011;11667;51.706;4.856;2022-12-29T06:34:19;11.40;;;2.08;;
23001;SDS011;11667;51.706;4.856;2022-12-29T06:36:48;7.20;;;1.60;;
23001;SDS011;11667;51.706;4.856;2022-12-29T06:39:18;12.00;;;2.05;;
23001;SDS011;11667;51.706;4.856;2022-12-29T06:41:52;8.43;;;1.62;;
23001;SDS011;11667;51.706;4.856;2022-12-29T06:44:23;13.10;;;2.42;;
23001;SDS011;11667;51.706;4.856;2022-12-29T06:46:55;8.55;;;1.82;;
23001;SDS011;11667;51.706;4.856;2022-12-29T06:49:25;9.38;;;1.70;;
23001;SDS011;11667;51.706;4.856;2022-12-29T06:51:54;10.63;;;1.35;;
23001;SDS011;11667;51.706;4.856;2022-12-29T06:54:25;7.47;;;1.52;;
23001;SDS011;11667;51.706;4.856;2022-12-29T06:56:54;7.28;;;1.65;;
23001;SDS011;11667;51.706;4.856;2022-12-29T06:59:24;8.88;;;1.77;;
23001;SDS011;11667;51.706;4.856;2022-12-29T07:01:53;6.35;;;1.50;;
23001;SDS011;11667;51.706;4.856;2022-12-29T07:04:23;11.70;;;2.02;;
23001;SDS011;11667;51.706;4.856;2022-12-29T07:06:52;12.68;;;1.75;;
23001;SDS011;11667;51.706;4.856;2022-12-29T07:09:22;7.92;;;1.75;;
23001;SDS011;11667;51.706;4.856;2022-12-29T07:11:51;11.55;;;2.10;;
23001;SDS011;11667;51.706;4.856;2022-12-29T07:14:20;10.43;;;2.05;;
23001;SDS011;11667;51.706;4.856;2022-12-29T07:16:50;10.23;;;1.62;;
23001;SDS011;11667;51.706;4.856;2022-12-29T07:19:19;7.95;;;1.75;;
23001;SDS011;11667;51.706;4.856;2022-12-29T07:21:48;10.45;;;1.80;;
23001;SDS011;11667;51.706;4.856;2022-12-29T07:24:17;11.53;;;2.15;;
23001;SDS011;11667;51.706;4.856;2022-12-29T07:26:47;6.42;;;1.55;;
23001;SDS011;11667;51.706;4.856;2022-12-29T07:29:16;10.85;;;1.87;;
23001;SDS011;11667;51.706;4.856;2022-12-29T07:31:46;13.32;;;2.20;;
23001;SDS011;11667;51.706;4.856;2022-12-29T07:34:16;11.12;;;1.80;;
23001;SDS011;11667;51.706;4.856;2022-12-29T07:36:45;9.85;;;2.15;;
23001;SDS011;11667;51.706;4.856;2022-12-29T07:39:15;13.20;;;2.35;;
23001;SDS011;11667;51.706;4.856;2022-12-29T07:41:44;13.20;;;2.50;;
23001;SDS011;11667;51.706;4.856;2022-12-29T07:44:16;10.65;;;2.08;;
23001;SDS011;11667;51.706;4.856;2022-12-29T07:47:03;13.40;;;2.05;;
23001;SDS011;11667;51.706;4.856;2022-12-29T07:49:33;15.83;;;2.42;;
23001;SDS011;11667;51.706;4.856;2022-12-29T07:52:02;16.07;;;2.95;;
23001;SDS011;11667;51.706;4.856;2022-12-29T07:54:33;13.15;;;2.15;;
23001;SDS011;11667;51.706;4.856;2022-12-29T07:57:03;12.25;;;2.35;;
23001;SDS011;11667;51.706;4.856;2022-12-29T07:59:33;9.43;;;2.00;;
23001;SDS011;11667;51.706;4.856;2022-12-29T08:02:02;9.98;;;1.80;;
23001;SDS011;11667;51.706;4.856;2022-12-29T08:04:32;10.65;;;2.10;;
23001;SDS011;11667;51.706;4.856;2022-12-29T08:07:01;11.95;;;1.98;;
23001;SDS011;11667;51.706;4.856;2022-12-29T08:09:31;11.60;;;1.95;;
23001;SDS011;11667;51.706;4.856;2022-12-29T08:12:00;10.80;;;1.98;;
23001;SDS011;11667;51.706;4.856;2022-12-29T08:14:29;8.78;;;1.65;;
23001;SDS011;11667;51.706;4.856;2022-12-29T08:16:58;10.50;;;2.15;;
23001;SDS011;11667;51.706;4.856;2022-12-29T08:19:28;12.58;;;1.95;;
23001;SDS011;11667;51.706;4.856;2022-12-29T08:21:57;17.48;;;2.33;;
23001;SDS011;11667;51.706;4.856;2022-12-29T08:24:27;10.93;;;1.82;;
23001;SDS011;11667;51.706;4.856;2022-12-29T08:26:56;15.40;;;2.45;;
23001;SDS011;11667;51.706;4.856;2022-12-29T08:29:27;14.58;;;2.45;;
23001;SDS011;11667;51.706;4.856;2022-12-29T08:31:57;11.90;;;2.15;;
23001;SDS011;11667;51.706;4.856;2022-12-29T08:34:26;9.95;;;2.15;;
23001;SDS011;11667;51.706;4.856;2022-12-29T08:36:56;13.10;;;1.98;;
23001;SDS011;11667;51.706;4.856;2022-12-29T08:39:25;13.32;;;2.22;;
23001;SDS011;11667;51.706;4.856;2022-12-29T08:41:55;7.72;;;1.80;;
23001;SDS011;11667;51.706;4.856;2022-12-29T08:44:24;13.85;;;2.50;;
23001;SDS011;11667;51.706;4.856;2022-12-29T08:46:54;14.07;;;2.25;;
23001;SDS011;11667;51.706;4.856;2022-12-29T08:49:23;13.93;;;2.40;;
23001;SDS011;11667;51.706;4.856;2022-12-29T08:51:53;14.18;;;2.67;;
23001;SDS011;11667;51.706;4.856;2022-12-29T08:54:22;15.50;;;2.40;;
23001;SDS011;11667;51.706;4.856;2022-12-29T08:56:52;15.83;;;2.83;;
23001;SDS011;11667;51.706;4.856;2022-12-29T08:59:23;10.72;;;2.27;;
23001;SDS011;11667;51.706;4.856;2022-12-29T09:01:52;13.30;;;2.47;;
23001;SDS011;11667;51.706;4.856;2022-12-29T09:04:23;12.68;;;1.90;;
23001;SDS011;11667;51.706;4.856;2022-12-29T09:06:53;13.72;;;2.10;;
23001;SDS011;11667;51.706;4.856;2022-12-29T09:09:23;14.03;;;2.42;;
23001;SDS011;11667;51.706;4.856;2022-12-29T09:11:52;14.47;;;2.45;;
23001;SDS011;11667;51.706;4.856;2022-12-29T09:14:23;12.18;;;2.55;;
23001;SDS011;11667;51.706;4.856;2022-12-29T09:16:53;15.55;;;2.20;;
23001;SDS011;11667;51.706;4.856;2022-12-29T09:19:41;12.88;;;2.35;;
23001;SDS011;11667;51.706;4.856;2022-12-29T09:22:11;12.58;;;2.10;;
23001;SDS011;11667;51.706;4.856;2022-12-29T09:24:40;13.20;;;2.67;;
23001;SDS011;11667;51.706;4.856;2022-12-29T09:27:10;11.20;;;2.05;;
23001;SDS011;11667;51.706;4.856;2022-12-29T09:29:39;11.12;;;2.47;;
23001;SDS011;11667;51.706;4.856;2022-12-29T09:32:09;12.78;;;2.47;;
23001;SDS011;11667;51.706;4.856;2022-12-29T09:34:40;9.63;;;2.10;;
23001;SDS011;11667;51.706;4.856;2022-12-29T09:37:10;14.63;;;2.37;;
23001;SDS011;11667;51.706;4.856;2022-12-29T09:39:39;14.40;;;2.60;;
23001;SDS011;11667;51.706;4.856;2022-12-29T09:42:19;16.45;;;2.87;;
23001;SDS011;11667;51.706;4.856;2022-12-29T09:47:34;14.40;;;2.47;;
23001;SDS011;11667;51.706;4.856;2022-12-29T09:53:02;10.63;;;2.50;;
23001;SDS011;11667;51.706;4.856;2022-12-29T09:55:40;15.15;;;2.85;;
23001;SDS011;11667;51.706;4.856;2022-12-29T10:01:06;19.45;;;3.58;;
23001;SDS011;11667;51.706;4.856;2022-12-29T10:09:32;14.45;;;3.62;;
23001;SDS011;11667;51.706;4.856;2022-12-29T10:22:53;17.12;;;5.05;;
23001;SDS011;11667;51.706;4.856;2022-12-29T10:25:37;22.58;;;4.33;;
23001;SDS011;11667;51.706;4.856;2022-12-29T10:28:19;16.23;;;4.80;;
23001;SDS011;11667;51.706;4.856;2022-12-29T10:30:46;16.40;;;4.33;;
23001;SDS011;11667;51.706;4.856;2022-12-29T10:33:24;19.57;;;4.08;;
23001;SDS011;11667;51.706;4.856;2022-12-29T10:35:55;19.70;;;5.12;;
23001;SDS011;11667;51.706;4.856;2022-12-29T10:38:26;18.92;;;5.00;;
23001;SDS011;11667;51.706;4.856;2022-12-29T10:41:02;17.70;;;5.05;;
23001;SDS011;11667;51.706;4.856;2022-12-29T10:43:49;20.70;;;5.08;;
23001;SDS011;11667;51.706;4.856;2022-12-29T10:46:22;21.00;;;4.40;;
23001;SDS011;11667;51.706;4.856;2022-12-29T10:48:55;23.00;;;5.08;;
23001;SDS011;11667;51.706;4.856;2022-12-29T10:51:26;21.12;;;5.50;;
23001;SDS011;11667;51.706;4.856;2022-12-29T10:54:03;22.10;;;5.75;;
23001;SDS011;11667;51.706;4.856;2022-12-29T10:56:38;22.17;;;5.40;;
23001;SDS011;11667;51.706;4.856;2022-12-29T11:02:00;23.95;;;6.05;;
23001;SDS011;11667;51.706;4.856;2022-12-29T11:04:38;24.27;;;4.97;;
23001;SDS011;11667;51.706;4.856;2022-12-29T11:07:24;21.30;;;4.53;;
23001;SDS011;11667;51.706;4.856;2022-12-29T11:09:54;21.87;;;5.12;;
23001;SDS011;11667;51.706;4.856;2022-12-29T11:12:25;21.12;;;4.03;;
23001;SDS011;11667;51.706;4.856;2022-12-29T11:17:51;20.23;;;4.15;;
23001;SDS011;11667;51.706;4.856;2022-12-29T11:20:38;17.35;;;3.45;;
23001;SDS011;11667;51.706;4.856;2022-12-29T11:22:56;15.08;;;3.77;;
23001;SDS011;11667;51.706;4.856;2022-12-29T11:25:25;19.00;;;3.47;;
23001;SDS011;11667;51.706;4.856;2022-12-29T11:27:59;15.23;;;3.33;;
23001;SDS011;11667;51.706;4.856;2022-12-29T11:32:58;22.87;;;3.60;;
23001;SDS011;11667;51.706;4.856;2022-12-29T11:35:34;20.43;;;3.80;;
23001;SDS011;11667;51.706;4.856;2022-12-29T11:38:19;21.25;;;4.03;;
23001;SDS011;11667;51.706;4.856;2022-12-29T11:40:51;24.43;;;4.15;;
23001;SDS011;11667;51.706;4.856;2022-12-29T11:43:26;18.15;;;3.42;;
23001;SDS011;11667;51.706;4.856;2022-12-29T11:46:05;16.32;;;3.87;;
23001;SDS011;11667;51.706;4.856;2022-12-29T11:48:38;17.70;;;3.50;;
23001;SDS011;11667;51.706;4.856;2022-12-29T11:51:09;19.20;;;3.65;;
23001;SDS011;11667;51.706;4.856;2022-12-29T11:56:15;17.77;;;3.65;;
23001;SDS011;11667;51.706;4.856;2022-12-29T12:01:17;33.15;;;13.48;;
23001;SDS011;11667;51.706;4.856;2022-12-29T12:04:01;16.60;;;3.87;;
23001;SDS011;11667;51.706;4.856;2022-12-29T12:06:29;22.67;;;4.53;;
23001;SDS011;11667;51.706;4.856;2022-12-29T12:09:10;16.23;;;3.80;;
23001;SDS011;11667;51.706;4.856;2022-12-29T12:14:46;18.37;;;4.37;;
23001;SDS011;11667;51.706;4.856;2022-12-29T12:17:29;19.82;;;4.53;;
23001;SDS011;11667;51.706;4.856;2022-12-29T12:20:03;18.35;;;4.20;;
23001;SDS011;11667;51.706;4.856;2022-12-29T12:22:34;18.30;;;3.40;;
23001;SDS011;11667;51.706;4.856;2022-12-29T12:27:48;16.05;;;3.37;;
23001;SDS011;11667;51.706;4.856;2022-12-29T12:30:22;14.93;;;3.20;;
23001;SDS011;11667;51.706;4.856;2022-12-29T12:38:42;15.93;;;3.10;;
23001;SDS011;11667;51.706;4.856;2022-12-29T12:41:20;12.63;;;2.80;;
23001;SDS011;11667;51.706;4.856;2022-12-29T12:44:11;12.80;;;2.95;;
23001;SDS011;11667;51.706;4.856;2022-12-29T12:46:46;12.37;;;2.95;;
23001;SDS011;11667;51.706;4.856;2022-12-29T12:49:28;17.62;;;3.55;;
23001;SDS011;11667;51.706;4.856;2022-12-29T12:57:17;13.40;;;2.77;;
23001;SDS011;11667;51.706;4.856;2022-12-29T12:59:56;16.27;;;3.00;;
23001;SDS011;11667;51.706;4.856;2022-12-29T13:02:36;11.90;;;2.50;;
23001;SDS011;11667;51.706;4.856;2022-12-29T13:10:54;8.88;;;1.87;;
23001;SDS011;11667;51.706;4.856;2022-12-29T13:30:00;9.28;;;2.00;;
23001;SDS011;11667;51.706;4.856;2022-12-29T13:32:32;9.55;;;1.60;;
23001;SDS011;11667;51.706;4.856;2022-12-29T13:37:56;13.32;;;2.67;;
23001;SDS011;11667;51.706;4.856;2022-12-29T13:40:28;12.95;;;2.25;;
23001;SDS011;11667;51.706;4.856;2022-12-29T13:43:01;11.38;;;2.37;;
23001;SDS011;11667;51.706;4.856;2022-12-29T13:45:32;12.30;;;2.62;;
23001;SDS011;11667;51.706;4.856;2022-12-29T13:48:17;15.40;;;2.80;;
23001;SDS011;11667;51.706;4.856;2022-12-29T13:50:58;13.20;;;2.67;;
23001;SDS011;11667;51.706;4.856;2022-12-29T13:53:25;13.80;;;3.22;;
23001;SDS011;11667;51.706;4.856;2022-12-29T13:56:16;14.07;;;3.15;;
23001;SDS011;11667;51.706;4.856;2022-12-29T13:58:52;10.32;;;3.30;;
23001;SDS011;11667;51.706;4.856;2022-12-29T14:01:22;13.15;;;3.55;;
23001;SDS011;11667;51.706;4.856;2022-12-29T14:03:54;11.20;;;3.22;;
23001;SDS011;11667;51.706;4.856;2022-12-29T14:06:25;13.28;;;3.90;;
23001;SDS011;11667;51.706;4.856;2022-12-29T14:11:32;12.15;;;3.60;;
23001;SDS011;11667;51.706;4.856;2022-12-29T14:17:10;13.60;;;3.33;;
23001;SDS011;11667;51.706;4.856;2022-12-29T14:19:44;13.22;;;3.12;;
23001;SDS011;11667;51.706;4.856;2022-12-29T14:22:27;14.65;;;3.10;;
23001;SDS011;11667;51.706;4.856;2022-12-29T14:24:53;14.00;;;3.15;;
23001;SDS011;11667;51.706;4.856;2022-12-29T14:29:57;11.57;;;3.27;;
23001;SDS011;11667;51.706;4.856;2022-12-29T14:38:25;13.72;;;2.90;;
23001;SDS011;11667;51.706;4.856;2022-12-29T14:43:51;9.78;;;2.50;;
23001;SDS011;11667;51.706;4.856;2022-12-29T14:49:19;12.23;;;3.42;;
23001;SDS011;11667;51.706;4.856;2022-12-29T14:51:51;12.40;;;3.55;;
23001;SDS011;11667;51.706;4.856;2022-12-29T15:00:12;13.48;;;3.25;;
23001;SDS011;11667;51.706;4.856;2022-12-29T15:02:54;13.38;;;2.90;;
23001;SDS011;11667;51.706;4.856;2022-12-29T15:05:28;16.12;;;3.45;;
23001;SDS011;11667;51.706;4.856;2022-12-29T15:08:08;13.88;;;2.58;;
23001;SDS011;11667;51.706;4.856;2022-12-29T15:10:42;10.03;;;2.47;;
23001;SDS011;11667;51.706;4.856;2022-12-29T15:13:17;8.78;;;2.60;;
23001;SDS011;11667;51.706;4.856;2022-12-29T15:15:48;11.57;;;3.42;;
23001;SDS011;11667;51.706;4.856;2022-12-29T15:18:25;9.25;;;2.25;;
23001;SDS011;11667;51.706;4.856;2022-12-29T15:21:02;10.45;;;1.87;;
23001;SDS011;11667;51.706;4.856;2022-12-29T15:23:33;9.05;;;2.00;;
23001;SDS011;11667;51.706;4.856;2022-12-29T15:26:07;10.23;;;2.45;;
23001;SDS011;11667;51.706;4.856;2022-12-29T15:28:42;6.67;;;1.72;;
23001;SDS011;11667;51.706;4.856;2022-12-29T15:31:13;9.05;;;1.82;;
23001;SDS011;11667;51.706;4.856;2022-12-29T15:33:51;8.28;;;1.57;;
23001;SDS011;11667;51.706;4.856;2022-12-29T15:36:23;6.10;;;1.82;;
23001;SDS011;11667;51.706;4.856;2022-12-29T15:38:54;9.03;;;2.62;;
23001;SDS011;11667;51.706;4.856;2022-12-29T15:41:25;7.97;;;1.85;;
23001;SDS011;11667;51.706;4.856;2022-12-29T15:44:08;6.03;;;2.00;;
23001;SDS011;11667;51.706;4.856;2022-12-29T15:46:42;12.80;;;2.25;;
23001;SDS011;11667;51.706;4.856;2022-12-29T15:49:13;8.80;;;2.98;;
23001;SDS011;11667;51.706;4.856;2022-12-29T15:51:43;9.83;;;2.22;;
23001;SDS011;11667;51.706;4.856;2022-12-29T15:54:18;11.80;;;1.82;;
23001;SDS011;11667;51.706;4.856;2022-12-29T15:56:48;10.28;;;2.70;;
23001;SDS011;11667;51.706;4.856;2022-12-29T15:59:31;8.65;;;2.00;;
23001;SDS011;11667;51.706;4.856;2022-12-29T16:02:01;10.72;;;2.05;;
23001;SDS011;11667;51.706;4.856;2022-12-29T16:04:33;12.25;;;2.10;;
23001;SDS011;11667;51.706;4.856;2022-12-29T16:07:05;9.58;;;2.37;;
23001;SDS011;11667;51.706;4.856;2022-12-29T16:09:43;7.08;;;2.05;;
23001;SDS011;11667;51.706;4.856;2022-12-29T16:12:17;11.73;;;2.67;;
23001;SDS011;11667;51.706;4.856;2022-12-29T16:14:46;12.05;;;2.42;;
23001;SDS011;11667;51.706;4.856;2022-12-29T16:17:23;10.48;;;2.50;;
23001;SDS011;11667;51.706;4.856;2022-12-29T16:20:02;7.75;;;1.85;;
23001;SDS011;11667;51.706;4.856;2022-12-29T16:22:38;9.45;;;2.67;;
23001;SDS011;11667;51.706;4.856;2022-12-29T16:28:01;15.55;;;7.10;;
23001;SDS011;11667;51.706;4.856;2022-12-29T16:30:32;18.62;;;6.28;;
23001;SDS011;11667;51.706;4.856;2022-12-29T16:33:05;14.63;;;3.62;;
23001;SDS011;11667;51.706;4.856;2022-12-29T16:38:21;12.07;;;2.40;;
23001;SDS011;11667;51.706;4.856;2022-12-29T16:40:55;11.55;;;2.55;;
23001;SDS011;11667;51.706;4.856;2022-12-29T16:43:35;12.75;;;2.90;;
23001;SDS011;11667;51.706;4.856;2022-12-29T16:46:16;13.78;;;2.40;;
23001;SDS011;11667;51.706;4.856;2022-12-29T16:48:51;14.18;;;4.03;;
23001;SDS011;11667;51.706;4.856;2022-12-29T16:51:30;9.05;;;2.95;;
23001;SDS011;11667;51.706;4.856;2022-12-29T16:54:00;18.20;;;3.12;;
23001;SDS011;11667;51.706;4.856;2022-12-29T16:56:31;24.92;;;10.10;;
23001;SDS011;11667;51.706;4.856;2022-12-29T17:01:53;16.85;;;4.70;;
23001;SDS011;11667;51.706;4.856;2022-12-29T17:04:22;14.07;;;4.12;;
23001;SDS011;11667;51.706;4.856;2022-12-29T17:06:52;11.22;;;2.80;;
23001;SDS011;11667;51.706;4.856;2022-12-29T17:09:25;20.15;;;5.00;;
23001;SDS011;11667;51.706;4.856;2022-12-29T17:11:56;8.48;;;2.50;;
23001;SDS011;11667;51.706;4.856;2022-12-29T17:17:23;13.58;;;3.10;;
23001;SDS011;11667;51.706;4.856;2022-12-29T17:19:56;15.23;;;3.77;;
23001;SDS011;11667;51.706;4.856;2022-12-29T17:22:29;11.60;;;3.62;;
23001;SDS011;11667;51.706;4.856;2022-12-29T17:25:00;11.25;;;3.02;;
23001;SDS011;11667;51.706;4.856;2022-12-29T17:27:32;12.82;;;3.92;;
23001;SDS011;11667;51.706;4.856;2022-12-29T17:30:12;14.93;;;4.12;;
23001;SDS011;11667;51.706;4.856;2022-12-29T17:32:45;17.52;;;5.30;;
23001;SDS011;11667;51.706;4.856;2022-12-29T17:35:16;18.07;;;4.50;;
23001;SDS011;11667;51.706;4.856;2022-12-29T17:37:47;18.62;;;5.03;;
23001;SDS011;11667;51.706;4.856;2022-12-29T17:40:18;14.15;;;3.20;;